sensor_id;sensor_type;location;lat;lon;timestamp;temperature;humidity
64874;HTU21D;51367;45.204;38.576;2024-01-30T00:02:15;-3.78;101.86
64874;HTU21D;51367;45.204;38.576;2024-01-30T00:04:42;-3.82;101.81
64874;HTU21D;51367;45.204;38.576;2024-01-30T00:07:08;-3.90;101.74
64874;HTU21D;51367;45.204;38.576;2024-01-30T00:09:34;-3.96;101.75
64874;HTU21D;51367;45.204;38.576;2024-01-30T00:12:00;-3.98;101.74
64874;HTU21D;51367;45.204;38.576;2024-01-30T00:14:27;-4.05;101.76
64874;HTU21D;51367;45.204;38.576;2024-01-30T00:16:53;-4.10;101.80
64874;HTU21D;51367;45.204;38.576;2024-01-30T00:19:19;-4.13;101.88
64874;HTU21D;51367;45.204;38.576;2024-01-30T00:21:45;-4.17;101.96
64874;HTU21D;51367;45.204;38.576;2024-01-30T00:24:11;-4.17;102.02
64874;HTU21D;51367;45.204;38.576;2024-01-30T00:26:37;-4.20;102.02
64874;HTU21D;51367;45.204;38.576;2024-01-30T00:29:03;-4.20;102.02
64874;HTU21D;51367;45.204;38.576;2024-01-30T00:31:30;-4.21;102.14
64874;HTU21D;51367;45.204;38.576;2024-01-30T00:33:56;-4.23;102.10
64874;HTU21D;51367;45.204;38.576;2024-01-30T00:36:22;-4.25;102.09
64874;HTU21D;51367;45.204;38.576;2024-01-30T00:38:48;-4.28;102.02
64874;HTU21D;51367;45.204;38.576;2024-01-30T00:41:14;-4.31;102.43
64874;HTU21D;51367;45.204;38.576;2024-01-30T00:43:40;-4.35;102.18
64874;HTU21D;51367;45.204;38.576;2024-01-30T00:46:07;-4.37;102.57
64874;HTU21D;51367;45.204;38.576;2024-01-30T00:48:33;-4.41;102.31
64874;HTU21D;51367;45.204;38.576;2024-01-30T00:50:59;-4.43;102.47
64874;HTU21D;51367;45.204;38.576;2024-01-30T00:53:26;-4.46;102.35
64874;HTU21D;51367;45.204;38.576;2024-01-30T00:55:52;-4.50;102.41
64874;HTU21D;51367;45.204;38.576;2024-01-30T00:58:18;-4.53;102.55
64874;HTU21D;51367;45.204;38.576;2024-01-30T01:00:45;-4.54;102.38
64874;HTU21D;51367;45.204;38.576;2024-01-30T01:03:11;-4.55;102.47
64874;HTU21D;51367;45.204;38.576;2024-01-30T01:05:37;-4.58;102.40
64874;HTU21D;51367;45.204;38.576;2024-01-30T01:08:05;-4.59;102.58
64874;HTU21D;51367;45.204;38.576;2024-01-30T01:10:31;-4.63;102.56
64874;HTU21D;51367;45.204;38.576;2024-01-30T01:12:57;-4.65;102.75
64874;HTU21D;51367;45.204;38.576;2024-01-30T01:15:24;-4.66;102.61
64874;HTU21D;51367;45.204;38.576;2024-01-30T01:17:49;-4.67;102.50
64874;HTU21D;51367;45.204;38.576;2024-01-30T01:20:16;-4.68;102.50
64874;HTU21D;51367;45.204;38.576;2024-01-30T01:22:42;-4.71;102.76
64874;HTU21D;51367;45.204;38.576;2024-01-30T01:25:08;-4.75;102.66
64874;HTU21D;51367;45.204;38.576;2024-01-30T01:27:36;-4.78;102.52
64874;HTU21D;51367;45.204;38.576;2024-01-30T01:30:09;-4.80;102.55
64874;HTU21D;51367;45.204;38.576;2024-01-30T01:32:36;-4.82;102.56
64874;HTU21D;51367;45.204;38.576;2024-01-30T01:35:03;-4.85;102.59
64874;HTU21D;51367;45.204;38.576;2024-01-30T01:37:31;-4.87;102.79
64874;HTU21D;51367;45.204;38.576;2024-01-30T01:39:58;-4.91;103.19
64874;HTU21D;51367;45.204;38.576;2024-01-30T01:42:24;-4.94;103.45
64874;HTU21D;51367;45.204;38.576;2024-01-30T01:44:50;-4.95;103.20
64874;HTU21D;51367;45.204;38.576;2024-01-30T01:47:16;-4.95;103.28
64874;HTU21D;51367;45.204;38.576;2024-01-30T01:49:42;-4.98;103.30
64874;HTU21D;51367;45.204;38.576;2024-01-30T01:52:09;-4.99;103.27
64874;HTU21D;51367;45.204;38.576;2024-01-30T01:54:35;-5.00;103.12
64874;HTU21D;51367;45.204;38.576;2024-01-30T01:57:03;-5.01;103.51
64874;HTU21D;51367;45.204;38.576;2024-01-30T01:59:29;-5.03;103.39
64874;HTU21D;51367;45.204;38.576;2024-01-30T02:01:56;-5.07;103.47
64874;HTU21D;51367;45.204;38.576;2024-01-30T02:04:23;-5.09;103.47
64874;HTU21D;51367;45.204;38.576;2024-01-30T02:06:49;-5.09;103.78
64874;HTU21D;51367;45.204;38.576;2024-01-30T02:09:16;-5.11;103.94
64874;HTU21D;51367;45.204;38.576;2024-01-30T02:11:42;-5.12;104.28
64874;HTU21D;51367;45.204;38.576;2024-01-30T02:14:09;-5.14;104.67
64874;HTU21D;51367;45.204;38.576;2024-01-30T02:16:35;-5.15;104.36
64874;HTU21D;51367;45.204;38.576;2024-01-30T02:19:02;-5.17;104.13
64874;HTU21D;51367;45.204;38.576;2024-01-30T02:21:28;-5.19;104.03
64874;HTU21D;51367;45.204;38.576;2024-01-30T02:23:55;-5.19;103.86
64874;HTU21D;51367;45.204;38.576;2024-01-30T02:26:22;-5.22;104.15
64874;HTU21D;51367;45.204;38.576;2024-01-30T02:28:48;-5.24;104.28
64874;HTU21D;51367;45.204;38.576;2024-01-30T02:31:15;-5.25;104.27
64874;HTU21D;51367;45.204;38.576;2024-01-30T02:33:41;-5.25;103.83
64874;HTU21D;51367;45.204;38.576;2024-01-30T02:36:07;-5.27;103.70
64874;HTU21D;51367;45.204;38.576;2024-01-30T02:38:33;-5.28;103.76
64874;HTU21D;51367;45.204;38.576;2024-01-30T02:41:00;-5.29;103.57
64874;HTU21D;51367;45.204;38.576;2024-01-30T02:43:26;-5.30;103.74
64874;HTU21D;51367;45.204;38.576;2024-01-30T02:45:52;-5.32;103.70
64874;HTU21D;51367;45.204;38.576;2024-01-30T02:48:18;-5.35;104.17
64874;HTU21D;51367;45.204;38.576;2024-01-30T02:50:44;-5.37;104.76
64874;HTU21D;51367;45.204;38.576;2024-01-30T02:53:11;-5.40;104.71
64874;HTU21D;51367;45.204;38.576;2024-01-30T02:55:38;-5.42;104.82
64874;HTU21D;51367;45.204;38.576;2024-01-30T02:58:04;-5.44;104.59
64874;HTU21D;51367;45.204;38.576;2024-01-30T03:00:30;-5.44;104.69
64874;HTU21D;51367;45.204;38.576;2024-01-30T03:02:56;-5.46;104.64
64874;HTU21D;51367;45.204;38.576;2024-01-30T03:05:23;-5.47;104.56
64874;HTU21D;51367;45.204;38.576;2024-01-30T03:07:49;-5.48;104.53
64874;HTU21D;51367;45.204;38.576;2024-01-30T03:10:15;-5.50;104.56
64874;HTU21D;51367;45.204;38.576;2024-01-30T03:12:41;-5.50;104.25
64874;HTU21D;51367;45.204;38.576;2024-01-30T03:15:08;-5.54;104.25
64874;HTU21D;51367;45.204;38.576;2024-01-30T03:17:35;-5.54;103.99
64874;HTU21D;51367;45.204;38.576;2024-01-30T03:20:03;-5.57;104.01
64874;HTU21D;51367;45.204;38.576;2024-01-30T03:22:29;-5.59;104.14
64874;HTU21D;51367;45.204;38.576;2024-01-30T03:24:55;-5.60;103.97
64874;HTU21D;51367;45.204;38.576;2024-01-30T03:27:21;-5.61;104.44
64874;HTU21D;51367;45.204;38.576;2024-01-30T03:29:47;-5.62;104.08
64874;HTU21D;51367;45.204;38.576;2024-01-30T03:32:14;-5.65;103.94
64874;HTU21D;51367;45.204;38.576;2024-01-30T03:34:39;-5.67;104.22
64874;HTU21D;51367;45.204;38.576;2024-01-30T03:37:06;-5.69;104.33
64874;HTU21D;51367;45.204;38.576;2024-01-30T03:39:32;-5.71;104.28
64874;HTU21D;51367;45.204;38.576;2024-01-30T03:41:58;-5.71;104.52
64874;HTU21D;51367;45.204;38.576;2024-01-30T03:44:24;-5.72;104.37
64874;HTU21D;51367;45.204;38.576;2024-01-30T03:46:50;-5.71;104.18
64874;HTU21D;51367;45.204;38.576;2024-01-30T03:49:16;-5.72;104.06
64874;HTU21D;51367;45.204;38.576;2024-01-30T03:51:43;-5.73;104.04
64874;HTU21D;51367;45.204;38.576;2024-01-30T03:54:09;-5.74;104.06
64874;HTU21D;51367;45.204;38.576;2024-01-30T03:56:35;-5.75;104.15
64874;HTU21D;51367;45.204;38.576;2024-01-30T03:59:01;-5.75;104.40
64874;HTU21D;51367;45.204;38.576;2024-01-30T04:01:28;-5.76;104.79
64874;HTU21D;51367;45.204;38.576;2024-01-30T04:03:54;-5.77;105.03
64874;HTU21D;51367;45.204;38.576;2024-01-30T04:06:20;-5.77;104.55
64874;HTU21D;51367;45.204;38.576;2024-01-30T04:08:47;-5.76;104.70
64874;HTU21D;51367;45.204;38.576;2024-01-30T04:11:13;-5.78;104.66
64874;HTU21D;51367;45.204;38.576;2024-01-30T04:13:39;-5.78;105.14
64874;HTU21D;51367;45.204;38.576;2024-01-30T04:16:05;-5.78;105.40
64874;HTU21D;51367;45.204;38.576;2024-01-30T04:18:31;-5.82;105.64
64874;HTU21D;51367;45.204;38.576;2024-01-30T04:20:59;-5.82;105.23
64874;HTU21D;51367;45.204;38.576;2024-01-30T04:23:25;-5.82;105.56
64874;HTU21D;51367;45.204;38.576;2024-01-30T04:25:51;-5.83;106.17
64874;HTU21D;51367;45.204;38.576;2024-01-30T04:28:18;-5.86;106.21
64874;HTU21D;51367;45.204;38.576;2024-01-30T04:30:44;-5.86;105.85
64874;HTU21D;51367;45.204;38.576;2024-01-30T04:33:11;-5.89;106.15
64874;HTU21D;51367;45.204;38.576;2024-01-30T04:35:37;-5.91;106.43
64874;HTU21D;51367;45.204;38.576;2024-01-30T04:38:03;-5.93;106.21
64874;HTU21D;51367;45.204;38.576;2024-01-30T04:40:30;-5.97;105.82
64874;HTU21D;51367;45.204;38.576;2024-01-30T04:42:56;-5.98;105.82
64874;HTU21D;51367;45.204;38.576;2024-01-30T04:45:22;-5.99;105.46
64874;HTU21D;51367;45.204;38.576;2024-01-30T04:47:48;-5.99;105.15
64874;HTU21D;51367;45.204;38.576;2024-01-30T04:50:14;-5.99;105.35
64874;HTU21D;51367;45.204;38.576;2024-01-30T04:52:40;-6.00;105.54
64874;HTU21D;51367;45.204;38.576;2024-01-30T04:55:07;-6.00;105.27
64874;HTU21D;51367;45.204;38.576;2024-01-30T04:57:33;-6.01;105.15
64874;HTU21D;51367;45.204;38.576;2024-01-30T04:59:59;-6.00;105.09
64874;HTU21D;51367;45.204;38.576;2024-01-30T05:02:26;-6.00;104.93
64874;HTU21D;51367;45.204;38.576;2024-01-30T05:04:53;-5.99;104.80
64874;HTU21D;51367;45.204;38.576;2024-01-30T05:07:19;-5.97;104.74
64874;HTU21D;51367;45.204;38.576;2024-01-30T05:09:45;-5.96;104.70
64874;HTU21D;51367;45.204;38.576;2024-01-30T05:12:11;-5.92;104.61
64874;HTU21D;51367;45.204;38.576;2024-01-30T05:14:38;-5.90;104.63
64874;HTU21D;51367;45.204;38.576;2024-01-30T05:17:04;-5.88;104.61
64874;HTU21D;51367;45.204;38.576;2024-01-30T05:19:30;-5.84;104.67
64874;HTU21D;51367;45.204;38.576;2024-01-30T05:21:56;-5.81;104.69
64874;HTU21D;51367;45.204;38.576;2024-01-30T05:24:22;-5.76;104.66
64874;HTU21D;51367;45.204;38.576;2024-01-30T05:26:48;-5.71;104.65
64874;HTU21D;51367;45.204;38.576;2024-01-30T05:29:14;-5.68;104.91
64874;HTU21D;51367;45.204;38.576;2024-01-30T05:31:40;-5.64;104.85
64874;HTU21D;51367;45.204;38.576;2024-01-30T05:34:06;-5.59;105.05
64874;HTU21D;51367;45.204;38.576;2024-01-30T05:36:32;-5.54;105.00
64874;HTU21D;51367;45.204;38.576;2024-01-30T05:38:58;-5.49;104.86
64874;HTU21D;51367;45.204;38.576;2024-01-30T05:41:24;-5.43;104.78
64874;HTU21D;51367;45.204;38.576;2024-01-30T05:43:50;-5.38;104.76
64874;HTU21D;51367;45.204;38.576;2024-01-30T05:46:16;-5.31;104.84
64874;HTU21D;51367;45.204;38.576;2024-01-30T05:48:42;-5.24;105.06
64874;HTU21D;51367;45.204;38.576;2024-01-30T05:51:08;-5.18;105.02
64874;HTU21D;51367;45.204;38.576;2024-01-30T05:53:34;-5.10;104.99
64874;HTU21D;51367;45.204;38.576;2024-01-30T05:56:04;-4.99;105.14
64874;HTU21D;51367;45.204;38.576;2024-01-30T05:58:31;-4.84;105.40
64874;HTU21D;51367;45.204;38.576;2024-01-30T06:00:57;-4.58;106.02
64874;HTU21D;51367;45.204;38.576;2024-01-30T06:03:24;-4.23;106.80
64874;HTU21D;51367;45.204;38.576;2024-01-30T06:05:50;-3.83;107.13
64874;HTU21D;51367;45.204;38.576;2024-01-30T06:08:17;-3.39;107.29
64874;HTU21D;51367;45.204;38.576;2024-01-30T06:10:43;-2.93;107.40
64874;HTU21D;51367;45.204;38.576;2024-01-30T06:13:09;-2.44;107.08
64874;HTU21D;51367;45.204;38.576;2024-01-30T06:15:35;-1.91;107.08
64874;HTU21D;51367;45.204;38.576;2024-01-30T06:18:01;-1.38;106.98
64874;HTU21D;51367;45.204;38.576;2024-01-30T06:20:28;-0.93;106.46
64874;HTU21D;51367;45.204;38.576;2024-01-30T06:22:54;-0.51;106.06
64874;HTU21D;51367;45.204;38.576;2024-01-30T06:25:20;-0.17;104.79
64874;HTU21D;51367;45.204;38.576;2024-01-30T06:27:46;0.01;102.56
64874;HTU21D;51367;45.204;38.576;2024-01-30T06:30:12;0.12;101.51
64874;HTU21D;51367;45.204;38.576;2024-01-30T06:32:38;0.29;101.72
64874;HTU21D;51367;45.204;38.576;2024-01-30T06:35:05;0.50;99.35
64874;HTU21D;51367;45.204;38.576;2024-01-30T06:37:31;0.67;102.70
64874;HTU21D;51367;45.204;38.576;2024-01-30T06:39:57;1.02;104.36
64874;HTU21D;51367;45.204;38.576;2024-01-30T06:42:23;1.38;102.57
64874;HTU21D;51367;45.204;38.576;2024-01-30T06:44:50;1.66;105.76
64874;HTU21D;51367;45.204;38.576;2024-01-30T06:47:15;1.95;105.99
64874;HTU21D;51367;45.204;38.576;2024-01-30T06:49:42;2.35;105.35
64874;HTU21D;51367;45.204;38.576;2024-01-30T06:52:09;2.62;105.80
64874;HTU21D;51367;45.204;38.576;2024-01-30T06:54:36;2.87;106.57
64874;HTU21D;51367;45.204;38.576;2024-01-30T06:57:02;3.16;106.21
64874;HTU21D;51367;45.204;38.576;2024-01-30T06:59:28;3.38;103.58
64874;HTU21D;51367;45.204;38.576;2024-01-30T07:01:55;3.62;103.02
64874;HTU21D;51367;45.204;38.576;2024-01-30T07:04:21;3.84;101.18
64874;HTU21D;51367;45.204;38.576;2024-01-30T07:06:47;3.97;102.15
64874;HTU21D;51367;45.204;38.576;2024-01-30T07:09:13;4.16;101.73
64874;HTU21D;51367;45.204;38.576;2024-01-30T07:11:39;4.29;99.79
64874;HTU21D;51367;45.204;38.576;2024-01-30T07:14:06;4.39;98.42
64874;HTU21D;51367;45.204;38.576;2024-01-30T07:16:32;4.26;95.71
64874;HTU21D;51367;45.204;38.576;2024-01-30T07:18:58;3.97;95.65
64874;HTU21D;51367;45.204;38.576;2024-01-30T07:21:24;3.68;98.64
64874;HTU21D;51367;45.204;38.576;2024-01-30T07:23:54;3.56;99.03
64874;HTU21D;51367;45.204;38.576;2024-01-30T07:26:21;3.32;93.04
64874;HTU21D;51367;45.204;38.576;2024-01-30T07:28:47;3.02;92.77
64874;HTU21D;51367;45.204;38.576;2024-01-30T07:31:14;2.95;100.60
64874;HTU21D;51367;45.204;38.576;2024-01-30T07:33:40;3.11;100.83
64874;HTU21D;51367;45.204;38.576;2024-01-30T07:36:06;3.19;97.68
64874;HTU21D;51367;45.204;38.576;2024-01-30T07:38:32;3.20;98.45
64874;HTU21D;51367;45.204;38.576;2024-01-30T07:40:59;3.33;100.56
64874;HTU21D;51367;45.204;38.576;2024-01-30T07:43:25;3.49;103.18
64874;HTU21D;51367;45.204;38.576;2024-01-30T07:45:51;3.58;101.80
64874;HTU21D;51367;45.204;38.576;2024-01-30T07:48:18;3.80;104.53
64874;HTU21D;51367;45.204;38.576;2024-01-30T07:50:44;4.05;102.15
64874;HTU21D;51367;45.204;38.576;2024-01-30T07:53:10;4.00;96.65
64874;HTU21D;51367;45.204;38.576;2024-01-30T07:55:36;3.83;97.22
64874;HTU21D;51367;45.204;38.576;2024-01-30T07:58:03;3.67;100.17
64874;HTU21D;51367;45.204;38.576;2024-01-30T08:00:30;3.76;103.29
64874;HTU21D;51367;45.204;38.576;2024-01-30T08:02:56;3.73;98.93
64874;HTU21D;51367;45.204;38.576;2024-01-30T08:05:23;3.55;92.23
64874;HTU21D;51367;45.204;38.576;2024-01-30T08:07:49;3.32;90.71
64874;HTU21D;51367;45.204;38.576;2024-01-30T08:10:16;3.30;96.56
64874;HTU21D;51367;45.204;38.576;2024-01-30T08:12:44;3.53;98.22
64874;HTU21D;51367;45.204;38.576;2024-01-30T08:15:11;3.55;91.22
64874;HTU21D;51367;45.204;38.576;2024-01-30T08:17:40;3.47;94.64
64874;HTU21D;51367;45.204;38.576;2024-01-30T08:20:07;3.41;89.83
64874;HTU21D;51367;45.204;38.576;2024-01-30T08:22:41;3.19;87.58
64874;HTU21D;51367;45.204;38.576;2024-01-30T08:25:07;3.14;88.90
64874;HTU21D;51367;45.204;38.576;2024-01-30T08:27:34;3.16;92.46
64874;HTU21D;51367;45.204;38.576;2024-01-30T08:30:02;3.26;93.91
64874;HTU21D;51367;45.204;38.576;2024-01-30T08:32:28;3.36;92.89
64874;HTU21D;51367;45.204;38.576;2024-01-30T08:34:54;3.41;86.83
64874;HTU21D;51367;45.204;38.576;2024-01-30T08:37:20;3.38;89.31
64874;HTU21D;51367;45.204;38.576;2024-01-30T08:39:46;3.46;91.01
64874;HTU21D;51367;45.204;38.576;2024-01-30T08:42:13;3.64;89.76
64874;HTU21D;51367;45.204;38.576;2024-01-30T08:44:39;3.75;88.89
64874;HTU21D;51367;45.204;38.576;2024-01-30T08:47:05;3.76;86.39
64874;HTU21D;51367;45.204;38.576;2024-01-30T08:49:31;3.60;83.99
64874;HTU21D;51367;45.204;38.576;2024-01-30T08:51:57;3.43;83.58
64874;HTU21D;51367;45.204;38.576;2024-01-30T08:54:23;3.20;81.50
64874;HTU21D;51367;45.204;38.576;2024-01-30T08:56:49;2.93;79.46
64874;HTU21D;51367;45.204;38.576;2024-01-30T08:59:18;2.53;77.22
64874;HTU21D;51367;45.204;38.576;2024-01-30T09:01:45;2.21;79.71
64874;HTU21D;51367;45.204;38.576;2024-01-30T09:04:12;1.93;78.67
64874;HTU21D;51367;45.204;38.576;2024-01-30T09:06:38;1.76;80.85
64874;HTU21D;51367;45.204;38.576;2024-01-30T09:09:05;1.63;79.02
64874;HTU21D;51367;45.204;38.576;2024-01-30T09:11:31;1.54;80.22
64874;HTU21D;51367;45.204;38.576;2024-01-30T09:13:57;1.52;80.04
64874;HTU21D;51367;45.204;38.576;2024-01-30T09:16:23;1.54;79.68
64874;HTU21D;51367;45.204;38.576;2024-01-30T09:18:50;1.48;74.29
64874;HTU21D;51367;45.204;38.576;2024-01-30T09:21:16;1.46;75.54
64874;HTU21D;51367;45.204;38.576;2024-01-30T09:23:42;1.39;76.12
64874;HTU21D;51367;45.204;38.576;2024-01-30T09:26:08;1.33;75.33
64874;HTU21D;51367;45.204;38.576;2024-01-30T09:28:34;1.33;77.31
64874;HTU21D;51367;45.204;38.576;2024-01-30T09:31:01;1.32;77.42
64874;HTU21D;51367;45.204;38.576;2024-01-30T23:26:04;-4.70;108.56
64874;HTU21D;51367;45.204;38.576;2024-01-30T23:28:30;-4.70;106.72
64874;HTU21D;51367;45.204;38.576;2024-01-30T23:30:56;-4.65;105.42
64874;HTU21D;51367;45.204;38.576;2024-01-30T23:33:22;-4.58;104.41
64874;HTU21D;51367;45.204;38.576;2024-01-30T23:35:48;-4.54;103.96
64874;HTU21D;51367;45.204;38.576;2024-01-30T23:38:14;-4.51;103.67
64874;HTU21D;51367;45.204;38.576;2024-01-30T23:40:41;-4.49;103.99
64874;HTU21D;51367;45.204;38.576;2024-01-30T23:43:08;-4.48;104.66
64874;HTU21D;51367;45.204;38.576;2024-01-30T23:45:34;-4.49;104.62
64874;HTU21D;51367;45.204;38.576;2024-01-30T23:48:00;-4.50;103.40
64874;HTU21D;51367;45.204;38.576;2024-01-30T23:50:26;-4.50;103.63
64874;HTU21D;51367;45.204;38.576;2024-01-30T23:52:52;-4.53;103.78
64874;HTU21D;51367;45.204;38.576;2024-01-30T23:55:18;-4.57;104.12
64874;HTU21D;51367;45.204;38.576;2024-01-30T23:57:45;-4.64;104.66
